sensor_id;sensor_type;location;lat;lon;timestamp;pressure;altitude;pressure_sealevel;temperature;humidity
28004;BME280;15330;51.234;6.754;2022-08-14T00:02:15;100760.81;;;25.04;38.83
28004;BME280;15330;51.234;6.754;2022-08-14T00:04:41;100754.56;;;25.08;38.86
28004;BME280;15330;51.234;6.754;2022-08-14T00:07:06;100748.19;;;24.98;38.92
28004;BME280;15330;51.234;6.754;2022-08-14T00:09:33;100750.94;;;25.03;39.19
28004;BME280;15330;51.234;6.754;2022-08-14T00:11:59;100749.31;;;25.02;39.25
28004;BME280;15330;51.234;6.754;2022-08-14T00:14:26;100742.41;;;24.94;39.29
28004;BME280;15330;51.234;6.754;2022-08-14T00:16:52;100743.31;;;25.05;39.32
28004;BME280;15330;51.234;6.754;2022-08-14T00:19:17;100739.41;;;24.96;39.57
28004;BME280;15330;51.234;6.754;2022-08-14T00:21:43;100743.22;;;24.95;39.47
28004;BME280;15330;51.234;6.754;2022-08-14T00:24:08;100734.22;;;24.72;40.00
28004;BME280;15330;51.234;6.754;2022-08-14T00:26:33;100728.72;;;24.67;40.50
28004;BME280;15330;51.234;6.754;2022-08-14T00:28:59;100725.28;;;24.55;40.63
28004;BME280;15330;51.234;6.754;2022-08-14T00:31:24;100720.41;;;24.57;40.98
28004;BME280;15330;51.234;6.754;2022-08-14T00:33:51;100719.72;;;24.72;40.61
28004;BME280;15330;51.234;6.754;2022-08-14T00:36:17;100720.34;;;24.52;40.81
28004;BME280;15330;51.234;6.754;2022-08-14T00:38:43;100713.84;;;24.58;40.82
28004;BME280;15330;51.234;6.754;2022-08-14T00:41:08;100706.31;;;24.43;40.89
28004;BME280;15330;51.234;6.754;2022-08-14T00:43:34;100701.66;;;24.44;41.40
28004;BME280;15330;51.234;6.754;2022-08-14T00:46:05;100693.06;;;24.57;41.13
28004;BME280;15330;51.234;6.754;2022-08-14T00:48:31;100695.31;;;24.65;40.98
28004;BME280;15330;51.234;6.754;2022-08-14T00:50:56;100695.88;;;24.67;40.88
28004;BME280;15330;51.234;6.754;2022-08-14T00:53:22;100699.38;;;24.63;41.00
28004;BME280;15330;51.234;6.754;2022-08-14T00:55:50;100702.94;;;24.63;41.09
28004;BME280;15330;51.234;6.754;2022-08-14T00:58:16;100699.09;;;24.59;41.53
28004;BME280;15330;51.234;6.754;2022-08-14T01:01:10;100693.56;;;24.54;41.62
28004;BME280;15330;51.234;6.754;2022-08-14T01:03:37;100687.69;;;24.67;41.54
28004;BME280;15330;51.234;6.754;2022-08-14T01:06:08;100684.63;;;24.64;41.30
28004;BME280;15330;51.234;6.754;2022-08-14T01:08:35;100682.13;;;24.57;41.97
28004;BME280;15330;51.234;6.754;2022-08-14T01:11:01;100671.09;;;24.52;41.85
28004;BME280;15330;51.234;6.754;2022-08-14T01:13:34;100682.50;;;24.44;42.41
28004;BME280;15330;51.234;6.754;2022-08-14T01:16:03;100676.31;;;24.54;42.04
28004;BME280;15330;51.234;6.754;2022-08-14T01:18:30;100676.06;;;24.06;43.19
28004;BME280;15330;51.234;6.754;2022-08-14T01:21:20;100677.19;;;24.10;43.45
28004;BME280;15330;51.234;6.754;2022-08-14T01:23:48;100670.34;;;24.08;43.83
28004;BME280;15330;51.234;6.754;2022-08-14T01:26:20;100660.75;;;24.05;44.33
28004;BME280;15330;51.234;6.754;2022-08-14T01:28:48;100661.44;;;23.74;45.12
28004;BME280;15330;51.234;6.754;2022-08-14T01:31:17;100655.06;;;24.12;44.24
28004;BME280;15330;51.234;6.754;2022-08-14T01:33:45;100657.06;;;23.73;45.48
28004;BME280;15330;51.234;6.754;2022-08-14T01:36:13;100647.53;;;23.97;44.97
28004;BME280;15330;51.234;6.754;2022-08-14T01:38:42;100646.38;;;23.93;45.35
28004;BME280;15330;51.234;6.754;2022-08-14T01:41:12;100639.78;;;23.89;45.36
28004;BME280;15330;51.234;6.754;2022-08-14T01:43:49;100636.41;;;23.82;46.03
28004;BME280;15330;51.234;6.754;2022-08-14T01:46:21;100629.16;;;23.93;45.42
28004;BME280;15330;51.234;6.754;2022-08-14T01:48:47;100625.22;;;24.05;45.14
28004;BME280;15330;51.234;6.754;2022-08-14T01:51:14;100627.75;;;23.90;46.01
28004;BME280;15330;51.234;6.754;2022-08-14T01:53:47;100624.84;;;23.97;46.16
28004;BME280;15330;51.234;6.754;2022-08-14T01:56:15;100614.63;;;23.87;46.16
28004;BME280;15330;51.234;6.754;2022-08-14T01:58:47;100615.06;;;23.79;46.51
28004;BME280;15330;51.234;6.754;2022-08-14T02:01:18;100608.66;;;23.68;46.85
28004;BME280;15330;51.234;6.754;2022-08-14T02:03:43;100607.69;;;24.01;46.35
28004;BME280;15330;51.234;6.754;2022-08-14T02:06:10;100612.78;;;23.71;47.27
28004;BME280;15330;51.234;6.754;2022-08-14T02:08:36;100603.97;;;23.64;47.38
28004;BME280;15330;51.234;6.754;2022-08-14T02:11:04;100604.34;;;23.51;47.98
28004;BME280;15330;51.234;6.754;2022-08-14T02:13:51;100599.47;;;23.53;48.04
28004;BME280;15330;51.234;6.754;2022-08-14T02:16:20;100600.88;;;23.55;48.03
28004;BME280;15330;51.234;6.754;2022-08-14T02:18:54;100601.00;;;23.49;48.54
28004;BME280;15330;51.234;6.754;2022-08-14T02:21:20;100600.88;;;23.38;48.80
28004;BME280;15330;51.234;6.754;2022-08-14T02:23:48;100606.41;;;23.43;48.33
28004;BME280;15330;51.234;6.754;2022-08-14T02:26:20;100609.31;;;23.54;48.54
28004;BME280;15330;51.234;6.754;2022-08-14T02:28:48;100606.63;;;23.59;48.46
28004;BME280;15330;51.234;6.754;2022-08-14T02:31:15;100603.53;;;23.33;49.26
28004;BME280;15330;51.234;6.754;2022-08-14T02:33:41;100607.41;;;23.37;49.10
28004;BME280;15330;51.234;6.754;2022-08-14T02:36:09;100610.22;;;23.42;48.95
28004;BME280;15330;51.234;6.754;2022-08-14T02:38:36;100615.53;;;23.71;48.31
28004;BME280;15330;51.234;6.754;2022-08-14T02:41:03;100618.06;;;23.56;49.03
28004;BME280;15330;51.234;6.754;2022-08-14T02:43:30;100600.63;;;23.40;48.96
28004;BME280;15330;51.234;6.754;2022-08-14T02:45:57;100608.91;;;23.28;49.56
28004;BME280;15330;51.234;6.754;2022-08-14T02:48:22;100610.97;;;23.38;49.41
28004;BME280;15330;51.234;6.754;2022-08-14T02:50:50;100616.16;;;23.39;49.53
28004;BME280;15330;51.234;6.754;2022-08-14T02:53:15;100616.41;;;23.55;49.45
28004;BME280;15330;51.234;6.754;2022-08-14T02:55:42;100611.47;;;23.52;49.55
28004;BME280;15330;51.234;6.754;2022-08-14T02:58:08;100608.53;;;23.20;50.35
28004;BME280;15330;51.234;6.754;2022-08-14T03:00:33;100611.50;;;23.35;50.24
28004;BME280;15330;51.234;6.754;2022-08-14T03:03:00;100607.69;;;23.19;50.28
28004;BME280;15330;51.234;6.754;2022-08-14T03:05:27;100610.66;;;23.34;50.07
28004;BME280;15330;51.234;6.754;2022-08-14T03:08:03;100605.56;;;23.21;50.44
28004;BME280;15330;51.234;6.754;2022-08-14T03:10:29;100606.56;;;23.15;50.45
28004;BME280;15330;51.234;6.754;2022-08-14T03:12:54;100609.19;;;23.49;49.71
28004;BME280;15330;51.234;6.754;2022-08-14T03:15:21;100603.72;;;23.49;49.98
28004;BME280;15330;51.234;6.754;2022-08-14T03:17:46;100601.75;;;23.22;50.50
28004;BME280;15330;51.234;6.754;2022-08-14T03:20:15;100598.38;;;23.37;50.26
28004;BME280;15330;51.234;6.754;2022-08-14T03:22:40;100600.72;;;23.28;50.43
28004;BME280;15330;51.234;6.754;2022-08-14T03:25:06;100594.84;;;22.98;51.44
28004;BME280;15330;51.234;6.754;2022-08-14T03:27:31;100596.81;;;23.41;50.47
28004;BME280;15330;51.234;6.754;2022-08-14T03:29:57;100595.31;;;23.50;49.88
28004;BME280;15330;51.234;6.754;2022-08-14T03:32:22;100600.09;;;23.21;50.75
28004;BME280;15330;51.234;6.754;2022-08-14T03:34:48;100603.09;;;23.41;50.16
28004;BME280;15330;51.234;6.754;2022-08-14T03:37:14;100599.22;;;23.37;50.42
28004;BME280;15330;51.234;6.754;2022-08-14T03:39:39;100597.31;;;23.38;50.51
28004;BME280;15330;51.234;6.754;2022-08-14T03:42:05;100604.13;;;23.35;50.56
28004;BME280;15330;51.234;6.754;2022-08-14T03:44:30;100594.91;;;23.41;50.34
28004;BME280;15330;51.234;6.754;2022-08-14T03:47:00;100594.88;;;23.20;51.09
28004;BME280;15330;51.234;6.754;2022-08-14T03:49:25;100589.88;;;23.12;51.18
28004;BME280;15330;51.234;6.754;2022-08-14T03:51:50;100589.22;;;23.26;50.70
28004;BME280;15330;51.234;6.754;2022-08-14T03:54:16;100595.97;;;23.19;51.08
28004;BME280;15330;51.234;6.754;2022-08-14T03:56:41;100594.19;;;23.29;50.71
28004;BME280;15330;51.234;6.754;2022-08-14T03:59:10;100594.56;;;23.38;50.73
28004;BME280;15330;51.234;6.754;2022-08-14T04:01:38;100591.97;;;23.26;51.03
28004;BME280;15330;51.234;6.754;2022-08-14T04:04:05;100584.00;;;23.41;50.41
28004;BME280;15330;51.234;6.754;2022-08-14T04:06:33;100591.72;;;23.28;50.79
28004;BME280;15330;51.234;6.754;2022-08-14T04:08:58;100589.91;;;23.33;50.57
28004;BME280;15330;51.234;6.754;2022-08-14T04:11:25;100591.41;;;23.24;50.86
28004;BME280;15330;51.234;6.754;2022-08-14T04:13:50;100593.56;;;23.22;51.18
28004;BME280;15330;51.234;6.754;2022-08-14T04:16:18;100573.31;;;23.40;50.51
28004;BME280;15330;51.234;6.754;2022-08-14T04:18:47;100586.50;;;23.26;51.15
28004;BME280;15330;51.234;6.754;2022-08-14T04:21:14;100584.88;;;23.25;51.23
28004;BME280;15330;51.234;6.754;2022-08-14T04:23:40;100583.25;;;23.08;51.73
28004;BME280;15330;51.234;6.754;2022-08-14T04:26:10;100573.00;;;23.15;51.53
28004;BME280;15330;51.234;6.754;2022-08-14T04:28:37;100579.78;;;23.12;51.51
28004;BME280;15330;51.234;6.754;2022-08-14T04:31:04;100580.63;;;22.96;51.89
28004;BME280;15330;51.234;6.754;2022-08-14T04:33:30;100586.50;;;22.88;52.45
28004;BME280;15330;51.234;6.754;2022-08-14T04:35:56;100585.47;;;23.11;51.67
28004;BME280;15330;51.234;6.754;2022-08-14T04:38:22;100581.84;;;23.05;52.26
28004;BME280;15330;51.234;6.754;2022-08-14T04:41:07;100577.03;;;23.12;51.71
28004;BME280;15330;51.234;6.754;2022-08-14T04:43:51;100575.88;;;23.25;51.61
28004;BME280;15330;51.234;6.754;2022-08-14T04:46:18;100574.19;;;23.62;50.31
28004;BME280;15330;51.234;6.754;2022-08-14T04:48:45;100583.13;;;23.19;51.50
28004;BME280;15330;51.234;6.754;2022-08-14T04:51:12;100585.72;;;23.09;51.85
28004;BME280;15330;51.234;6.754;2022-08-14T04:53:40;100582.13;;;23.03;52.27
28004;BME280;15330;51.234;6.754;2022-08-14T04:56:13;100548.75;;;22.80;52.34
28004;BME280;15330;51.234;6.754;2022-08-14T04:58:39;100567.66;;;22.86;52.65
28004;BME280;15330;51.234;6.754;2022-08-14T05:01:08;100571.22;;;22.87;52.69
28004;BME280;15330;51.234;6.754;2022-08-14T05:03:36;100570.72;;;22.90;52.63
28004;BME280;15330;51.234;6.754;2022-08-14T05:06:04;100563.59;;;23.27;51.46
28004;BME280;15330;51.234;6.754;2022-08-14T05:08:31;100563.28;;;23.24;51.76
28004;BME280;15330;51.234;6.754;2022-08-14T05:10:58;100566.88;;;23.08;52.31
28004;BME280;15330;51.234;6.754;2022-08-14T05:13:26;100564.53;;;22.94;52.42
28004;BME280;15330;51.234;6.754;2022-08-14T05:15:53;100567.88;;;23.01;52.46
28004;BME280;15330;51.234;6.754;2022-08-14T05:18:21;100561.03;;;22.65;53.53
28004;BME280;15330;51.234;6.754;2022-08-14T05:20:50;100554.44;;;22.61;53.57
28004;BME280;15330;51.234;6.754;2022-08-14T05:23:21;100559.25;;;23.10;52.55
28004;BME280;15330;51.234;6.754;2022-08-14T05:25:48;100563.41;;;23.12;52.35
28004;BME280;15330;51.234;6.754;2022-08-14T05:28:19;100563.97;;;23.14;52.35
28004;BME280;15330;51.234;6.754;2022-08-14T05:30:53;100550.97;;;23.21;52.10
28004;BME280;15330;51.234;6.754;2022-08-14T05:33:21;100551.38;;;22.91;53.11
28004;BME280;15330;51.234;6.754;2022-08-14T05:35:49;100545.47;;;22.99;52.83
28004;BME280;15330;51.234;6.754;2022-08-14T05:38:16;100551.78;;;23.00;52.86
28004;BME280;15330;51.234;6.754;2022-08-14T05:40:43;100539.44;;;23.14;52.93
28004;BME280;15330;51.234;6.754;2022-08-14T05:43:08;100534.53;;;22.94;53.16
28004;BME280;15330;51.234;6.754;2022-08-14T05:45:34;100536.75;;;23.19;52.68
28004;BME280;15330;51.234;6.754;2022-08-14T05:48:04;100542.03;;;22.87;53.35
28004;BME280;15330;51.234;6.754;2022-08-14T05:50:30;100533.59;;;22.89;53.53
28004;BME280;15330;51.234;6.754;2022-08-14T05:52:56;100544.50;;;23.49;51.93
28004;BME280;15330;51.234;6.754;2022-08-14T05:55:23;100535.34;;;22.61;54.23
28004;BME280;15330;51.234;6.754;2022-08-14T05:58:01;100548.16;;;22.94;53.40
28004;BME280;15330;51.234;6.754;2022-08-14T06:00:31;100529.56;;;22.91;53.24
28004;BME280;15330;51.234;6.754;2022-08-14T06:02:58;100539.47;;;23.19;52.84
28004;BME280;15330;51.234;6.754;2022-08-14T06:05:24;100524.13;;;23.13;52.97
28004;BME280;15330;51.234;6.754;2022-08-14T06:07:50;100520.56;;;23.13;53.04
28004;BME280;15330;51.234;6.754;2022-08-14T06:10:15;100509.94;;;23.82;51.08
28004;BME280;15330;51.234;6.754;2022-08-14T06:12:41;100524.44;;;23.60;51.74
28004;BME280;15330;51.234;6.754;2022-08-14T06:15:07;100527.22;;;23.87;51.01
28004;BME280;15330;51.234;6.754;2022-08-14T06:17:50;100539.53;;;24.17;50.44
28004;BME280;15330;51.234;6.754;2022-08-14T06:20:16;100529.06;;;24.08;50.80
28004;BME280;15330;51.234;6.754;2022-08-14T06:22:43;100526.28;;;24.03;50.79
28004;BME280;15330;51.234;6.754;2022-08-14T06:25:09;100531.53;;;24.74;48.96
28004;BME280;15330;51.234;6.754;2022-08-14T06:27:40;100517.00;;;24.68;49.17
28004;BME280;15330;51.234;6.754;2022-08-14T06:30:07;100524.28;;;24.95;48.12
28004;BME280;15330;51.234;6.754;2022-08-14T06:32:33;100524.50;;;23.87;50.81
28004;BME280;15330;51.234;6.754;2022-08-14T06:34:59;100524.31;;;24.63;49.18
28004;BME280;15330;51.234;6.754;2022-08-14T06:37:24;100529.28;;;24.66;49.11
28004;BME280;15330;51.234;6.754;2022-08-14T06:39:51;100530.94;;;24.72;48.73
28004;BME280;15330;51.234;6.754;2022-08-14T06:42:16;100526.81;;;25.06;47.98
28004;BME280;15330;51.234;6.754;2022-08-14T06:44:42;100524.03;;;25.58;47.12
28004;BME280;15330;51.234;6.754;2022-08-14T06:47:09;100517.78;;;24.64;48.77
28004;BME280;15330;51.234;6.754;2022-08-14T06:49:35;100516.06;;;24.52;49.27
28004;BME280;15330;51.234;6.754;2022-08-14T06:52:02;100511.22;;;25.02;47.74
28004;BME280;15330;51.234;6.754;2022-08-14T06:54:27;100501.78;;;25.45;47.19
28004;BME280;15330;51.234;6.754;2022-08-14T06:56:53;100513.44;;;25.15;47.76
28004;BME280;15330;51.234;6.754;2022-08-14T06:59:18;100509.31;;;25.07;47.92
28004;BME280;15330;51.234;6.754;2022-08-14T07:01:44;100500.69;;;25.41;47.25
28004;BME280;15330;51.234;6.754;2022-08-14T07:04:28;100511.84;;;25.24;47.24
28004;BME280;15330;51.234;6.754;2022-08-14T07:07:12;100502.88;;;25.44;46.68
28004;BME280;15330;51.234;6.754;2022-08-14T07:09:37;100498.38;;;25.80;46.43
28004;BME280;15330;51.234;6.754;2022-08-14T07:12:03;100498.94;;;26.17;45.40
28004;BME280;15330;51.234;6.754;2022-08-14T07:14:28;100491.78;;;25.81;45.42
28004;BME280;15330;51.234;6.754;2022-08-14T07:16:54;100492.63;;;25.96;45.94
28004;BME280;15330;51.234;6.754;2022-08-14T07:19:19;100494.84;;;26.20;45.32
28004;BME280;15330;51.234;6.754;2022-08-14T07:21:45;100482.25;;;26.44;44.40
28004;BME280;15330;51.234;6.754;2022-08-14T07:24:10;100492.31;;;25.63;45.96
28004;BME280;15330;51.234;6.754;2022-08-14T07:26:35;100486.56;;;26.71;44.10
28004;BME280;15330;51.234;6.754;2022-08-14T07:29:01;100489.28;;;27.06;43.95
28004;BME280;15330;51.234;6.754;2022-08-14T07:31:26;100483.00;;;26.75;44.29
28004;BME280;15330;51.234;6.754;2022-08-14T07:33:52;100485.47;;;26.82;43.37
28004;BME280;15330;51.234;6.754;2022-08-14T07:36:19;100484.56;;;27.17;44.23
28004;BME280;15330;51.234;6.754;2022-08-14T07:38:45;100475.03;;;26.79;43.99
28004;BME280;15330;51.234;6.754;2022-08-14T07:41:11;100480.34;;;27.39;43.44
28004;BME280;15330;51.234;6.754;2022-08-14T07:43:38;100476.13;;;26.98;43.59
28004;BME280;15330;51.234;6.754;2022-08-14T07:46:04;100474.63;;;27.26;43.39
28004;BME280;15330;51.234;6.754;2022-08-14T07:48:30;100468.81;;;27.32;42.40
28004;BME280;15330;51.234;6.754;2022-08-14T07:50:56;100465.44;;;27.95;41.39
28004;BME280;15330;51.234;6.754;2022-08-14T07:53:21;100472.38;;;27.87;41.63
28004;BME280;15330;51.234;6.754;2022-08-14T07:55:48;100482.06;;;27.74;41.89
28004;BME280;15330;51.234;6.754;2022-08-14T07:58:14;100477.69;;;28.12;41.14
28004;BME280;15330;51.234;6.754;2022-08-14T08:00:40;100464.75;;;28.71;40.52
28004;BME280;15330;51.234;6.754;2022-08-14T08:03:07;100458.22;;;28.91;39.40
28004;BME280;15330;51.234;6.754;2022-08-14T08:05:35;100467.81;;;28.06;40.72
28004;BME280;15330;51.234;6.754;2022-08-14T08:08:02;100470.09;;;27.99;40.33
28004;BME280;15330;51.234;6.754;2022-08-14T08:10:28;100463.91;;;28.46;40.07
28004;BME280;15330;51.234;6.754;2022-08-14T08:15:26;100472.88;;;29.52;37.52
28004;BME280;15330;51.234;6.754;2022-08-14T08:17:52;100465.06;;;28.40;39.99
28004;BME280;15330;51.234;6.754;2022-08-14T08:20:22;100477.47;;;28.96;38.84
28004;BME280;15330;51.234;6.754;2022-08-14T08:22:50;100477.00;;;28.60;39.31
28004;BME280;15330;51.234;6.754;2022-08-14T08:25:19;100466.31;;;28.24;39.58
28004;BME280;15330;51.234;6.754;2022-08-14T08:28:06;100461.53;;;28.64;39.16
28004;BME280;15330;51.234;6.754;2022-08-14T08:30:34;100466.28;;;28.58;39.38
28004;BME280;15330;51.234;6.754;2022-08-14T08:33:02;100464.16;;;29.03;38.37
28004;BME280;15330;51.234;6.754;2022-08-14T08:35:33;100464.91;;;29.51;37.94
28004;BME280;15330;51.234;6.754;2022-08-14T08:38:07;100455.63;;;30.49;36.84
28004;BME280;15330;51.234;6.754;2022-08-14T08:40:41;100447.94;;;30.00;36.36
28004;BME280;15330;51.234;6.754;2022-08-14T08:46:02;100454.47;;;31.10;36.17
28004;BME280;15330;51.234;6.754;2022-08-14T08:48:51;100463.69;;;30.13;35.99
28004;BME280;15330;51.234;6.754;2022-08-14T08:51:23;100448.22;;;29.80;36.92
28004;BME280;15330;51.234;6.754;2022-08-14T08:54:02;100452.59;;;29.81;36.48
28004;BME280;15330;51.234;6.754;2022-08-14T08:59:25;100452.53;;;31.74;33.58
28004;BME280;15330;51.234;6.754;2022-08-14T09:01:55;100441.97;;;30.72;34.60
28004;BME280;15330;51.234;6.754;2022-08-14T09:04:25;100441.03;;;30.16;35.33
28004;BME280;15330;51.234;6.754;2022-08-14T09:06:51;100439.41;;;31.16;33.51
28004;BME280;15330;51.234;6.754;2022-08-14T09:09:28;100433.56;;;30.77;34.61
28004;BME280;15330;51.234;6.754;2022-08-14T09:11:55;100436.53;;;32.16;32.62
28004;BME280;15330;51.234;6.754;2022-08-14T09:14:21;100441.34;;;31.29;33.59
28004;BME280;15330;51.234;6.754;2022-08-14T09:16:51;100437.78;;;30.88;33.89
28004;BME280;15330;51.234;6.754;2022-08-14T09:19:17;100444.25;;;31.47;34.53
28004;BME280;15330;51.234;6.754;2022-08-14T09:21:43;100436.84;;;30.79;34.02
28004;BME280;15330;51.234;6.754;2022-08-14T09:24:10;100438.88;;;32.00;32.09
28004;BME280;15330;51.234;6.754;2022-08-14T09:26:36;100435.94;;;30.70;33.52
28004;BME280;15330;51.234;6.754;2022-08-14T09:29:03;100419.38;;;32.58;32.02
28004;BME280;15330;51.234;6.754;2022-08-14T09:31:30;100421.09;;;32.76;33.19
28004;BME280;15330;51.234;6.754;2022-08-14T09:37:24;100417.91;;;30.99;32.97
28004;BME280;15330;51.234;6.754;2022-08-14T09:40:11;100404.84;;;30.91;32.66
28004;BME280;15330;51.234;6.754;2022-08-14T09:42:47;100398.47;;;32.52;31.98
28004;BME280;15330;51.234;6.754;2022-08-14T09:45:20;100403.03;;;31.36;29.62
28004;BME280;15330;51.234;6.754;2022-08-14T09:47:54;100393.88;;;31.86;29.32
28004;BME280;15330;51.234;6.754;2022-08-14T09:53:03;100387.66;;;33.47;27.98
28004;BME280;15330;51.234;6.754;2022-08-14T09:55:31;100376.47;;;32.87;28.50
28004;BME280;15330;51.234;6.754;2022-08-14T09:58:16;100379.31;;;33.21;27.99
28004;BME280;15330;51.234;6.754;2022-08-14T10:00:54;100367.09;;;33.74;28.13
28004;BME280;15330;51.234;6.754;2022-08-14T10:03:34;100367.59;;;32.67;28.65
28004;BME280;15330;51.234;6.754;2022-08-14T10:06:19;100371.13;;;31.30;31.25
28004;BME280;15330;51.234;6.754;2022-08-14T10:08:56;100366.41;;;33.16;29.01
28004;BME280;15330;51.234;6.754;2022-08-14T10:11:23;100377.38;;;33.56;27.80
28004;BME280;15330;51.234;6.754;2022-08-14T10:13:55;100367.88;;;33.05;28.72
28004;BME280;15330;51.234;6.754;2022-08-14T10:16:25;100366.09;;;33.09;28.07
28004;BME280;15330;51.234;6.754;2022-08-14T10:19:06;100363.47;;;32.56;28.45
28004;BME280;15330;51.234;6.754;2022-08-14T10:21:33;100358.16;;;32.68;28.76
28004;BME280;15330;51.234;6.754;2022-08-14T10:23:59;100355.00;;;32.53;28.11
28004;BME280;15330;51.234;6.754;2022-08-14T10:26:24;100353.66;;;32.50;28.96
28004;BME280;15330;51.234;6.754;2022-08-14T10:28:51;100344.56;;;32.50;28.84
28004;BME280;15330;51.234;6.754;2022-08-14T10:31:25;100341.28;;;32.96;27.16
28004;BME280;15330;51.234;6.754;2022-08-14T10:36:35;100339.06;;;34.60;25.83
28004;BME280;15330;51.234;6.754;2022-08-14T10:39:08;100328.91;;;33.71;27.03
28004;BME280;15330;51.234;6.754;2022-08-14T10:41:40;100332.53;;;34.27;25.70
28004;BME280;15330;51.234;6.754;2022-08-14T10:44:17;100327.63;;;34.23;25.87
28004;BME280;15330;51.234;6.754;2022-08-14T10:46:49;100325.72;;;34.15;25.79
28004;BME280;15330;51.234;6.754;2022-08-14T10:49:24;100321.78;;;34.25;25.85
28004;BME280;15330;51.234;6.754;2022-08-14T10:51:59;100328.34;;;35.29;24.72
28004;BME280;15330;51.234;6.754;2022-08-14T11:02:36;100311.00;;;33.25;25.54
28004;BME280;15330;51.234;6.754;2022-08-14T11:05:16;100310.59;;;35.13;23.56
28004;BME280;15330;51.234;6.754;2022-08-14T11:10:24;100304.41;;;33.73;25.61
28004;BME280;15330;51.234;6.754;2022-08-14T11:12:54;100307.25;;;32.38;26.75
28004;BME280;15330;51.234;6.754;2022-08-14T11:15:26;100298.28;;;32.41;26.52
28004;BME280;15330;51.234;6.754;2022-08-14T11:17:53;100298.97;;;32.56;26.68
28004;BME280;15330;51.234;6.754;2022-08-14T11:20:20;100303.94;;;33.62;25.99
28004;BME280;15330;51.234;6.754;2022-08-14T11:22:50;100290.38;;;33.78;25.21
28004;BME280;15330;51.234;6.754;2022-08-14T11:25:17;100305.94;;;32.44;27.05
28004;BME280;15330;51.234;6.754;2022-08-14T11:27:45;100296.09;;;33.73;25.73
28004;BME280;15330;51.234;6.754;2022-08-14T11:30:15;100290.75;;;34.52;25.56
28004;BME280;15330;51.234;6.754;2022-08-14T11:32:46;100285.44;;;34.89;24.94
28004;BME280;15330;51.234;6.754;2022-08-14T11:35:18;100284.06;;;34.74;23.66
28004;BME280;15330;51.234;6.754;2022-08-14T11:40:17;100279.63;;;33.59;25.20
28004;BME280;15330;51.234;6.754;2022-08-14T11:42:45;100282.09;;;32.92;25.53
28004;BME280;15330;51.234;6.754;2022-08-14T11:45:10;100269.28;;;32.39;26.37
28004;BME280;15330;51.234;6.754;2022-08-14T11:47:37;100265.94;;;32.20;26.86
28004;BME280;15330;51.234;6.754;2022-08-14T11:50:32;100266.56;;;32.08;26.72
28004;BME280;15330;51.234;6.754;2022-08-14T11:52:59;100259.97;;;32.26;26.80
28004;BME280;15330;51.234;6.754;2022-08-14T11:55:32;100247.88;;;33.05;26.09
28004;BME280;15330;51.234;6.754;2022-08-14T11:58:07;100254.06;;;33.19;26.29
28004;BME280;15330;51.234;6.754;2022-08-14T12:00:45;100248.41;;;34.17;25.28
28004;BME280;15330;51.234;6.754;2022-08-14T12:03:10;100249.13;;;34.44;24.47
28004;BME280;15330;51.234;6.754;2022-08-14T12:05:38;100249.16;;;32.73;25.80
28004;BME280;15330;51.234;6.754;2022-08-14T12:08:07;100236.63;;;32.84;25.24
28004;BME280;15330;51.234;6.754;2022-08-14T12:10:39;100236.47;;;32.80;25.87
28004;BME280;15330;51.234;6.754;2022-08-14T12:13:19;100230.19;;;31.92;26.36
28004;BME280;15330;51.234;6.754;2022-08-14T12:15:56;100233.03;;;33.27;25.37
28004;BME280;15330;51.234;6.754;2022-08-14T12:18:33;100228.94;;;32.07;26.75
28004;BME280;15330;51.234;6.754;2022-08-14T12:23:37;100221.94;;;32.92;25.37
28004;BME280;15330;51.234;6.754;2022-08-14T12:26:13;100215.91;;;33.33;25.83
28004;BME280;15330;51.234;6.754;2022-08-14T12:28:38;100214.41;;;34.29;24.94
28004;BME280;15330;51.234;6.754;2022-08-14T12:31:15;100202.69;;;33.94;24.71
28004;BME280;15330;51.234;6.754;2022-08-14T12:33:43;100204.03;;;34.68;24.40
28004;BME280;15330;51.234;6.754;2022-08-14T12:36:19;100194.19;;;34.20;24.32
28004;BME280;15330;51.234;6.754;2022-08-14T12:38:45;100183.38;;;33.60;25.32
28004;BME280;15330;51.234;6.754;2022-08-14T12:41:15;100186.59;;;33.70;24.78
28004;BME280;15330;51.234;6.754;2022-08-14T12:43:50;100177.22;;;33.45;25.14
28004;BME280;15330;51.234;6.754;2022-08-14T12:46:22;100177.91;;;33.25;24.49
28004;BME280;15330;51.234;6.754;2022-08-14T12:48:49;100169.53;;;34.18;24.79
28004;BME280;15330;51.234;6.754;2022-08-14T12:51:19;100149.91;;;35.07;23.82
28004;BME280;15330;51.234;6.754;2022-08-14T12:53:45;100158.97;;;34.62;23.68
28004;BME280;15330;51.234;6.754;2022-08-14T12:56:16;100148.28;;;33.64;24.82
28004;BME280;15330;51.234;6.754;2022-08-14T12:58:48;100153.47;;;33.74;24.48
28004;BME280;15330;51.234;6.754;2022-08-14T13:03:48;100143.03;;;33.07;25.78
28004;BME280;15330;51.234;6.754;2022-08-14T13:06:14;100144.69;;;32.99;25.43
28004;BME280;15330;51.234;6.754;2022-08-14T13:08:40;100144.69;;;31.73;27.86
28004;BME280;15330;51.234;6.754;2022-08-14T13:11:11;100147.91;;;32.15;27.80
28004;BME280;15330;51.234;6.754;2022-08-14T13:13:42;100140.19;;;31.95;28.21
28004;BME280;15330;51.234;6.754;2022-08-14T13:16:10;100133.63;;;32.39;27.93
28004;BME280;15330;51.234;6.754;2022-08-14T13:18:40;100149.88;;;32.23;27.67
28004;BME280;15330;51.234;6.754;2022-08-14T13:21:06;100137.44;;;32.03;27.90
28004;BME280;15330;51.234;6.754;2022-08-14T13:23:32;100135.31;;;31.92;27.75
28004;BME280;15330;51.234;6.754;2022-08-14T13:25:59;100145.81;;;32.29;28.22
28004;BME280;15330;51.234;6.754;2022-08-14T13:28:25;100132.00;;;32.47;27.90
28004;BME280;15330;51.234;6.754;2022-08-14T13:30:51;100125.19;;;32.78;27.97
28004;BME280;15330;51.234;6.754;2022-08-14T13:33:17;100124.16;;;33.00;27.47
28004;BME280;15330;51.234;6.754;2022-08-14T13:35:47;100117.44;;;33.10;27.75